Ebro, Florida
Current Conditions -  °F | °C
As of 11:53 PM on Friday 28 Nov 2014 (Local Time) from KECP Reporting Station
Clear Clear  
Wind Chill: 36°   Ceiling: Unl
Heat Index: 36°   Visibility: NA
Dew Point: 33°   Wind: 0mph
Humidity: 89%   Direction: NA
Pressure: 30.28"   Gusts: NA
Location:  30.45°N, 85.87°W
Report Text: KECP 290553Z AUTO 00000KT CLR 02/01 A3028 RMK AO2 SLP266 T00220006 10067 20022 401440006 58012 FZRANO $
Loading
Personal Weather Stations






























Interactive Weather Map New forecast layout! Learn more

10-Day Weather Forecast

Advertisements
Track Severe Weather on mobile